< Typhoon 201203 2012 Season Typhoon 201205 >
Typhoon 201204 (GUCHOL)
General InformationTrack Information on Google MapsDetailed Wind InformationAccess Analytics MapList of All Images || NewsDisaster Info.WeblogTrackbackTyphoon FrontTwiphoonTyphoon Now!Typhoon ImaginationResourceGoogle EarthGE AnimationAtom FeedGeoJSON
Detalied Best Track (Time Zone = UTC)
Year Month Day Hour Lat. Long. Pressure (hPa) Wind (kt) Class Image Chart
2012 6 10 12 7.2 148.6 1008 0 2 Image Chart
2012 6 10 18 8.8 148.2 1008 0 2 Image Chart
2012 6 11 00 9.0 147.3 1008 0 2 Image Chart
2012 6 11 06 9.1 146.4 1006 0 2 Image Chart
2012 6 11 12 9.3 145.5 1008 0 2 Image Chart
2012 6 11 18 9.4 144.6 1006 0 2 Image Chart
2012 6 12 00 9.6 143.7 1006 0 2 Image Chart
2012 6 12 06 9.5 143.0 1004 0 2 Image Chart
2012 6 12 12 9.5 142.2 1006 0 2 Image Chart
2012 6 12 18 9.4 141.5 1004 0 2 Image Chart
2012 6 13 00 9.3 140.7 1004 0 2 Image Chart
2012 6 13 06 10.0 139.3 1002 0 2 Image Chart
2012 6 13 12 10.7 138.0 1000 35 3 Image Chart
2012 6 13 18 10.8 136.6 992 45 3 Image Chart
2012 6 14 00 10.9 135.2 985 50 4 Image Chart
2012 6 14 06 10.7 134.1 985 50 4 Image Chart
2012 6 14 12 10.7 132.8 985 50 4 Image Chart
2012 6 14 18 10.4 132.2 980 55 4 Image Chart
2012 6 15 00 10.3 131.4 975 60 4 Image Chart
2012 6 15 06 10.4 131.2 975 60 4 Image Chart
2012 6 15 12 11.2 130.9 975 60 4 Image Chart
2012 6 15 18 11.9 130.5 975 60 4 Image Chart
2012 6 16 00 12.9 130.2 965 70 5 Image Chart
2012 6 16 06 14.0 129.6 950 85 5 Image Chart
2012 6 16 12 14.9 128.8 930 100 5 Image Chart
2012 6 16 18 16.2 128.4 930 100 5 Image Chart
2012 6 17 00 17.2 127.6 930 100 5 Image Chart
2012 6 17 06 18.3 127.3 930 100 5 Image Chart
2012 6 17 12 19.6 127.0 940 90 5 Image Chart
2012 6 17 18 20.8 127.0 950 85 5 Image Chart
2012 6 18 00 22.2 127.4 950 85 5 Image Chart
2012 6 18 03 23.0 127.6 950 85 5 Image Chart
2012 6 18 06 23.8 127.9 950 80 5 Image Chart
2012 6 18 09 24.6 128.2 950 80 5 Image Chart
2012 6 18 12 25.3 128.7 950 80 5 Image Chart
2012 6 18 15 26.2 129.4 950 80 5 Image Chart
2012 6 18 18 27.3 130.0 955 75 5 Image Chart
2012 6 18 21 28.6 130.9 955 75 5 Image Chart
2012 6 19 00 29.9 131.8 960 70 5 Image Chart
2012 6 19 03 30.8 133.1 960 70 5 Image Chart
2012 6 19 06 32.4 134.7 960 70 5 Image Chart
2012 6 19 08 33.4 135.5 960 70 5 Image Chart
2012 6 19 09 33.8 135.9 965 70 5 Image Chart
2012 6 19 11 34.7 137.0 970 65 5 Image Chart
2012 6 19 12 35.1 137.6 975 60 4 Image Chart
2012 6 19 15 36.2 139.0 980 55 4 Image Chart
2012 6 19 18 37.3 140.7 985 50 4 Image Chart
2012 6 19 21 37.9 142.0 985 50 4 Image Chart
2012 6 20 00 38.0 143.0 996 0 6 Image Chart
2012 6 20 06 39.5 144.2 998 0 6 Image Chart
2012 6 20 12 40.2 145.4 1000 0 6 Image Chart
2012 6 20 18 40.9 145.4 1000 0 6 Image Chart
2012 6 21 00 41.5 145.7 1004 0 6 Image Chart
2012 6 21 06 42.0 146.0 1006 0 6 Image Chart
2012 6 21 12 42.2 146.2 1008 0 6 Image Chart
2012 6 21 18 42.3 146.4 1006 0 6 Image Chart
2012 6 22 00 42.4 146.7 1008 0 6 Image Chart
2012 6 22 06 42.7 146.9 1006 0 6 Image Chart
Japan Meteorological Agency Best Track Data | Correction Date : 2012-07-24
< Typhoon 201203 2012 Season Typhoon 201205 >

Help